createdAt,value
2019-05-29T00:02:16.822Z,18.24
2019-05-29T00:04:43.197Z,18.23
2019-05-29T00:07:10.138Z,18.22
2019-05-29T00:09:35.825Z,18.14
2019-05-29T00:12:02.233Z,18.11
2019-05-29T00:14:28.524Z,18.12
2019-05-29T00:16:54.823Z,18.06
2019-05-29T00:19:21.155Z,18.00
2019-05-29T00:21:47.464Z,17.97
2019-05-29T00:24:13.864Z,17.97
2019-05-29T00:26:40.175Z,18.02
2019-05-29T00:29:07.506Z,17.95
2019-05-29T00:31:32.822Z,18.07
2019-05-29T00:33:59.131Z,18.21
2019-05-29T00:36:25.472Z,18.31
2019-05-29T00:38:51.768Z,18.13
2019-05-29T00:41:18.099Z,17.93
2019-05-29T00:43:44.410Z,17.90
2019-05-29T00:46:11.366Z,17.83
2019-05-29T00:48:37.062Z,17.89
2019-05-29T00:51:03.390Z,18.14
2019-05-29T00:53:29.715Z,18.26
2019-05-29T00:55:56.028Z,18.27
2019-05-29T00:58:22.361Z,18.30
2019-05-29T01:00:48.669Z,18.19
2019-05-29T01:03:15.852Z,18.12
2019-05-29T01:05:41.298Z,18.09
2019-05-29T01:08:07.602Z,18.24
2019-05-29T01:10:33.944Z,18.34
2019-05-29T01:13:00.267Z,18.43
2019-05-29T01:15:26.568Z,18.48
2019-05-29T01:17:52.897Z,18.41
2019-05-29T01:20:20.017Z,18.29
2019-05-29T01:22:45.552Z,18.08
2019-05-29T01:25:12.409Z,18.07
2019-05-29T01:27:38.217Z,18.05
2019-05-29T01:30:04.529Z,17.92
2019-05-29T01:32:30.837Z,18.05
2019-05-29T01:34:57.167Z,18.15
2019-05-29T01:37:24.362Z,17.99
2019-05-29T01:39:49.814Z,17.77
2019-05-29T01:42:17.240Z,17.70
2019-05-29T01:44:42.433Z,17.75
2019-05-29T01:47:08.763Z,17.84
2019-05-29T01:49:35.193Z,17.79
2019-05-29T01:52:01.377Z,17.99
2019-05-29T01:54:27.990Z,18.03
2019-05-29T01:56:54.021Z,17.96
2019-05-29T01:59:20.340Z,17.76
2019-05-29T02:01:46.651Z,17.55
2019-05-29T02:04:12.982Z,17.57
2019-05-29T02:06:39.300Z,17.63
2019-05-29T02:09:05.630Z,17.65
2019-05-29T02:11:32.363Z,17.79
2019-05-29T02:13:58.263Z,17.88
2019-05-29T02:16:24.917Z,17.87
2019-05-29T02:18:50.919Z,17.87
2019-05-29T02:21:18.015Z,17.76
2019-05-29T02:23:43.543Z,17.53
2019-05-29T02:26:09.859Z,17.41
2019-05-29T02:28:36.188Z,17.33
2019-05-29T02:31:02.523Z,17.33
2019-05-29T02:33:28.832Z,17.22
2019-05-29T02:35:55.169Z,17.14
2019-05-29T02:38:22.979Z,17.18
2019-05-29T02:40:47.806Z,17.11
2019-05-29T02:43:14.112Z,17.09
2019-05-29T02:45:53.917Z,17.10
2019-05-29T02:48:06.765Z,17.23
2019-05-29T02:50:33.054Z,17.19
2019-05-29T02:52:59.397Z,17.12
2019-05-29T02:55:26.900Z,17.01
2019-05-29T02:57:52.049Z,17.02
2019-05-29T03:00:18.345Z,17.06
2019-05-29T03:02:44.668Z,17.11
2019-05-29T03:05:11.006Z,17.33
2019-05-29T03:07:37.344Z,17.51
2019-05-29T03:10:03.664Z,17.62
2019-05-29T03:12:31.338Z,17.74
2019-05-29T03:14:56.313Z,17.71
2019-05-29T03:17:23.660Z,17.73
2019-05-29T03:19:48.933Z,17.80
2019-05-29T03:22:15.237Z,17.83
2019-05-29T03:24:41.564Z,17.59
2019-05-29T03:27:07.868Z,17.17
2019-05-29T03:29:34.420Z,16.82
2019-05-29T03:32:00.507Z,16.44
2019-05-29T03:34:28.478Z,16.15
2019-05-29T03:36:53.157Z,16.11
2019-05-29T03:39:19.475Z,16.13
2019-05-29T03:41:45.801Z,16.10
2019-05-29T03:44:12.140Z,16.20
2019-05-29T03:46:44.589Z,16.09
2019-05-29T03:49:04.752Z,16.12
2019-05-29T03:51:32.557Z,16.28
2019-05-29T03:53:57.411Z,16.27
2019-05-29T03:56:23.742Z,16.20
2019-05-29T03:58:50.078Z,16.11
2019-05-29T04:01:16.516Z,16.06
2019-05-29T04:03:42.719Z,16.03
2019-05-29T04:06:09.045Z,16.02
2019-05-29T04:08:35.823Z,16.26
2019-05-29T04:11:01.685Z,16.46
2019-05-29T04:13:29.478Z,16.70
2019-05-29T04:15:54.313Z,16.78
2019-05-29T04:18:20.824Z,16.67
2019-05-29T04:20:46.959Z,16.57
2019-05-29T04:23:13.319Z,16.66
2019-05-29T04:25:42.646Z,16.73
2019-05-29T04:28:05.937Z,16.74
2019-05-29T04:30:32.269Z,16.60
2019-05-29T04:32:58.575Z,16.57
2019-05-29T04:35:24.904Z,16.79
2019-05-29T04:37:51.218Z,17.12
2019-05-29T04:40:17.549Z,17.14
2019-05-29T04:42:43.849Z,17.26
2019-05-29T04:45:10.219Z,17.50
2019-05-29T04:47:37.335Z,17.70
2019-05-29T04:50:02.823Z,17.73
2019-05-29T04:52:29.236Z,17.87
2019-05-29T04:54:55.535Z,17.95
2019-05-29T04:57:21.828Z,17.99
2019-05-29T04:59:48.201Z,18.23
2019-05-29T05:02:14.505Z,18.47
2019-05-29T05:04:41.007Z,18.55
2019-05-29T05:07:07.343Z,19.12
2019-05-29T05:09:33.659Z,19.34
2019-05-29T05:12:00.233Z,19.38
2019-05-29T05:14:26.537Z,19.70
2019-05-29T05:16:52.861Z,20.10
2019-05-29T05:19:19.177Z,20.26
2019-05-29T05:21:45.505Z,20.26
2019-05-29T05:24:11.815Z,20.55
2019-05-29T05:26:38.416Z,20.76
2019-05-29T05:29:04.456Z,22.40
2019-05-29T05:31:30.774Z,24.08
2019-05-29T05:33:57.108Z,25.00
2019-05-29T05:36:23.408Z,25.23
2019-05-29T05:38:49.800Z,25.05
2019-05-29T05:41:16.107Z,23.52
2019-05-29T05:43:42.443Z,23.93
2019-05-29T05:46:08.767Z,24.70
2019-05-29T05:48:35.178Z,25.34
2019-05-29T05:51:01.455Z,26.26
2019-05-29T05:53:27.760Z,27.38
2019-05-29T05:55:54.091Z,27.91
2019-05-29T05:58:20.405Z,27.63
2019-05-29T06:00:46.746Z,27.89
2019-05-29T06:03:13.054Z,27.72
2019-05-29T06:05:40.192Z,28.26
2019-05-29T06:08:05.679Z,27.82
2019-05-29T06:10:32.119Z,27.68
2019-05-29T06:12:58.352Z,26.97
2019-05-29T06:15:24.788Z,26.73
2019-05-29T06:18:10.117Z,26.36
2019-05-29T06:20:17.329Z,26.80
2019-05-29T06:22:43.761Z,26.95
2019-05-29T06:25:09.997Z,26.96
2019-05-29T06:27:37.091Z,26.58
2019-05-29T06:30:03.611Z,26.80
2019-05-29T06:32:29.441Z,26.91
2019-05-29T06:34:55.896Z,27.16
2019-05-29T06:37:22.217Z,27.26
2019-05-29T06:39:48.528Z,26.80
2019-05-29T06:42:14.872Z,27.48
2019-05-29T06:44:41.981Z,27.11
2019-05-29T06:47:07.563Z,27.17
2019-05-29T06:49:33.955Z,27.07
2019-05-29T06:52:00.203Z,27.16
2019-05-29T06:54:26.513Z,27.70
2019-05-29T06:56:52.838Z,27.82
2019-05-29T06:59:19.164Z,28.31
2019-05-29T07:01:45.495Z,28.04
2019-05-29T07:04:12.662Z,26.96
2019-05-29T07:06:38.564Z,26.84
2019-05-29T07:09:04.639Z,27.23
2019-05-29T07:11:30.927Z,27.16
2019-05-29T07:13:57.313Z,27.33
2019-05-29T07:16:23.643Z,27.63
2019-05-29T07:19:23.825Z,27.96
2019-05-29T07:21:16.286Z,28.32
2019-05-29T07:23:46.129Z,28.49
2019-05-29T07:26:08.955Z,28.10
2019-05-29T07:28:35.259Z,27.70
2019-05-29T07:31:03.731Z,26.69
2019-05-29T07:33:27.922Z,26.50
2019-05-29T07:35:54.283Z,26.41
2019-05-29T07:38:20.630Z,26.47
2019-05-29T07:40:48.106Z,26.84
2019-05-29T07:43:13.274Z,27.63
2019-05-29T07:45:40.584Z,28.17
2019-05-29T07:48:05.942Z,28.67
2019-05-29T07:50:32.274Z,28.71
2019-05-29T07:52:58.634Z,28.84
2019-05-29T07:55:24.959Z,28.97
2019-05-29T07:57:51.263Z,28.44
2019-05-29T08:00:17.602Z,28.08
2019-05-29T08:02:45.103Z,28.34
2019-05-29T08:05:10.311Z,28.36
2019-05-29T08:07:36.680Z,29.03
2019-05-29T08:10:02.988Z,28.92
2019-05-29T08:12:29.326Z,29.33
2019-05-29T08:14:55.650Z,29.23
2019-05-29T08:17:21.974Z,28.79
2019-05-29T08:20:05.381Z,28.45
2019-05-29T08:22:14.604Z,28.09
2019-05-29T08:24:42.460Z,28.41
2019-05-29T08:27:07.251Z,28.30
2019-05-29T08:29:33.569Z,28.44
2019-05-29T08:31:59.877Z,28.65
2019-05-29T08:34:26.203Z,29.10
2019-05-29T08:37:04.776Z,29.37
2019-05-29T08:39:33.882Z,29.40
2019-05-29T08:41:56.159Z,29.70
2019-05-29T08:44:11.515Z,28.09
2019-05-29T08:46:37.863Z,27.77
2019-05-29T08:49:04.183Z,29.18
2019-05-29T08:51:30.484Z,29.35
2019-05-29T08:53:56.826Z,29.24
2019-05-29T08:56:23.191Z,28.82
2019-05-29T08:58:50.618Z,28.35
2019-05-29T09:01:15.874Z,28.66
2019-05-29T09:03:42.837Z,29.81
2019-05-29T09:06:10.383Z,29.97
2019-05-29T09:08:34.972Z,30.13
2019-05-29T09:11:01.304Z,29.07
2019-05-29T09:13:27.617Z,28.05
2019-05-29T09:15:53.951Z,27.29
2019-05-29T09:18:21.523Z,28.58
2019-05-29T09:21:01.858Z,29.48
2019-05-29T09:23:12.886Z,28.96
2019-05-29T09:25:39.223Z,28.65
2019-05-29T09:28:05.548Z,27.87
2019-05-29T09:30:31.901Z,28.57
2019-05-29T09:32:58.253Z,29.39
2019-05-29T09:35:25.082Z,28.44
2019-05-29T09:37:50.880Z,28.46
2019-05-29T09:40:17.209Z,29.01
2019-05-29T09:42:43.518Z,29.55
2019-05-29T09:45:09.944Z,30.24
2019-05-29T09:47:36.209Z,29.94
2019-05-29T09:50:02.546Z,30.08
2019-05-29T09:52:30.854Z,30.25
2019-05-29T09:54:56.073Z,28.89
2019-05-29T09:57:21.511Z,27.70
2019-05-29T09:59:47.829Z,26.98
2019-05-29T10:02:14.169Z,26.49
2019-05-29T10:04:40.470Z,26.34
2019-05-29T10:07:06.862Z,26.22
2019-05-29T10:09:33.181Z,26.14
2019-05-29T10:12:03.449Z,26.21
2019-05-29T10:14:25.831Z,26.37
2019-05-29T10:16:52.138Z,26.38
2019-05-29T10:19:18.572Z,26.28
2019-05-29T10:21:47.344Z,26.11
2019-05-29T10:24:11.326Z,26.06
2019-05-29T10:26:37.642Z,26.89
2019-05-29T10:29:08.634Z,28.49
2019-05-29T10:31:30.279Z,29.03
2019-05-29T10:33:56.587Z,28.65
2019-05-29T10:36:23.098Z,28.09
2019-05-29T10:38:50.608Z,28.61
2019-05-29T10:41:15.669Z,28.19
2019-05-29T10:43:42.929Z,27.56
2019-05-29T10:46:08.303Z,27.24
2019-05-29T10:48:34.700Z,27.16
2019-05-29T10:51:00.960Z,26.98
2019-05-29T10:53:27.334Z,26.77
2019-05-29T10:55:54.925Z,26.63
2019-05-29T10:58:19.956Z,28.13
2019-05-29T11:00:47.081Z,28.88
2019-05-29T11:03:12.618Z,28.36
2019-05-29T11:05:38.952Z,28.19
2019-05-29T11:08:05.287Z,27.67
2019-05-29T11:10:31.610Z,27.27
2019-05-29T11:12:57.915Z,27.07
2019-05-29T11:15:24.263Z,27.03
2019-05-29T11:17:51.379Z,27.23
2019-05-29T11:20:16.905Z,26.68
2019-05-29T11:22:43.239Z,26.66
2019-05-29T11:25:22.501Z,26.37
2019-05-29T11:27:35.894Z,26.66
2019-05-29T11:30:02.206Z,26.72
2019-05-29T11:32:28.548Z,26.43
2019-05-29T11:34:55.549Z,26.31
2019-05-29T11:37:21.215Z,26.08
2019-05-29T11:39:47.545Z,25.97
2019-05-29T11:42:27.025Z,26.14
2019-05-29T11:44:40.204Z,26.35
2019-05-29T11:47:06.617Z,26.85
2019-05-29T11:49:32.924Z,26.76
2019-05-29T11:52:21.689Z,27.01
2019-05-29T11:54:25.581Z,27.64
2019-05-29T11:56:53.602Z,28.05
2019-05-29T11:59:18.283Z,28.29
2019-05-29T12:01:50.050Z,28.61
2019-05-29T12:04:24.858Z,28.86
2019-05-29T12:06:37.314Z,29.18
2019-05-29T12:09:03.588Z,28.26
2019-05-29T12:11:29.996Z,27.58
2019-05-29T12:13:57.910Z,27.46
2019-05-29T12:16:22.649Z,27.44
2019-05-29T12:18:48.975Z,27.35
2019-05-29T12:21:15.293Z,27.11
2019-05-29T12:23:41.625Z,26.91
2019-05-29T12:26:21.815Z,26.84
2019-05-29T12:28:34.285Z,26.87
2019-05-29T12:31:01.577Z,27.45
2019-05-29T12:33:26.975Z,28.16
2019-05-29T12:35:53.298Z,28.28
2019-05-29T12:38:19.616Z,28.40
2019-05-29T12:40:45.946Z,28.74
2019-05-29T12:43:25.923Z,28.73
2019-05-29T12:45:38.561Z,28.65
2019-05-29T12:48:11.667Z,28.67
2019-05-29T12:50:34.384Z,28.56
2019-05-29T12:52:57.773Z,27.94
2019-05-29T12:55:23.896Z,27.60
2019-05-29T12:57:50.205Z,27.23
2019-05-29T13:00:16.543Z,27.21
2019-05-29T13:02:42.872Z,27.37
2019-05-29T13:05:18.017Z,27.47
2019-05-29T13:07:35.502Z,27.43
2019-05-29T13:10:02.804Z,27.20
2019-05-29T13:12:28.145Z,27.15
2019-05-29T13:14:54.522Z,27.07
2019-05-29T13:17:20.789Z,27.10
2019-05-29T13:19:47.089Z,27.00
2019-05-29T13:22:13.419Z,27.01
2019-05-29T13:24:39.828Z,26.96
2019-05-29T13:27:06.349Z,26.90
2019-05-29T13:29:32.504Z,26.84
2019-05-29T13:32:00.130Z,26.93
2019-05-29T13:34:25.160Z,26.90
2019-05-29T13:36:51.627Z,26.93
2019-05-29T13:39:17.962Z,26.81
2019-05-29T13:41:44.167Z,26.72
2019-05-29T13:44:10.497Z,26.76
2019-05-29T13:46:36.814Z,26.79
2019-05-29T13:49:03.160Z,26.83
2019-05-29T13:51:29.460Z,26.62
2019-05-29T13:54:03.572Z,26.19
2019-05-29T13:56:24.358Z,26.07
2019-05-29T13:58:48.413Z,26.13
2019-05-29T14:01:14.737Z,26.09
2019-05-29T14:03:41.060Z,26.04
2019-05-29T14:06:07.944Z,26.05
2019-05-29T14:08:33.687Z,26.02
2019-05-29T14:11:00.886Z,26.02
2019-05-29T14:13:26.320Z,26.03
2019-05-29T14:15:52.650Z,26.03
2019-05-29T14:18:18.959Z,25.97
2019-05-29T14:20:45.293Z,25.94
2019-05-29T14:23:11.847Z,25.92
2019-05-29T14:25:37.932Z,25.84
2019-05-29T14:28:04.562Z,25.95
2019-05-29T14:30:30.572Z,25.98
2019-05-29T14:32:56.897Z,26.07
2019-05-29T14:35:23.198Z,26.11
2019-05-29T14:37:49.534Z,26.08
2019-05-29T14:40:15.950Z,26.13
2019-05-29T14:42:42.269Z,26.06
2019-05-29T14:45:08.626Z,25.94
2019-05-29T14:47:34.903Z,25.85
2019-05-29T14:50:02.526Z,25.87
2019-05-29T14:52:27.558Z,25.95
2019-05-29T14:54:53.865Z,25.93
2019-05-29T14:57:25.864Z,26.08
2019-05-29T14:59:46.515Z,26.16
2019-05-29T15:02:22.955Z,26.17
2019-05-29T15:04:39.188Z,26.21
2019-05-29T15:07:05.778Z,26.19
2019-05-29T15:09:31.841Z,26.20
2019-05-29T15:11:58.773Z,26.21
2019-05-29T15:14:25.095Z,26.12
2019-05-29T15:16:51.424Z,26.19
2019-05-29T15:19:17.758Z,26.34
2019-05-29T15:21:44.040Z,26.51
2019-05-29T15:24:11.516Z,26.60
2019-05-29T15:26:36.683Z,26.34
2019-05-29T15:29:04.150Z,26.07
2019-05-29T15:31:30.480Z,26.10
2019-05-29T15:33:56.799Z,26.12
2019-05-29T15:36:23.124Z,25.98
2019-05-29T15:38:49.436Z,25.81
2019-05-29T15:41:16.818Z,25.71
2019-05-29T15:43:42.077Z,25.64
2019-05-29T15:46:10.167Z,25.54
2019-05-29T15:48:34.747Z,25.27
2019-05-29T15:51:01.058Z,25.08
2019-05-29T15:53:27.409Z,24.92
2019-05-29T15:55:53.710Z,24.75
2019-05-29T15:58:20.063Z,24.70
2019-05-29T16:00:46.358Z,24.69
2019-05-29T16:03:13.611Z,24.73
2019-05-29T16:05:39.019Z,24.66
2019-05-29T16:08:05.355Z,24.47
2019-05-29T16:10:31.717Z,24.41
2019-05-29T16:12:57.985Z,24.37
2019-05-29T16:15:24.316Z,24.25
2019-05-29T16:17:50.625Z,24.09
2019-05-29T16:20:16.954Z,23.93
2019-05-29T16:22:43.273Z,23.92
2019-05-29T16:25:10.737Z,23.91
2019-05-29T16:27:35.897Z,23.84
2019-05-29T16:30:02.206Z,23.86
2019-05-29T16:32:28.565Z,23.90
2019-05-29T16:34:54.867Z,23.96
2019-05-29T16:37:21.931Z,23.98
2019-05-29T16:39:47.531Z,24.00
2019-05-29T16:42:14.012Z,23.95
2019-05-29T16:44:40.185Z,23.94
2019-05-29T16:47:06.502Z,23.82
2019-05-29T16:49:32.813Z,23.75
2019-05-29T16:51:59.141Z,23.68
2019-05-29T16:54:25.478Z,23.56
2019-05-29T16:56:51.789Z,23.52
2019-05-29T16:59:19.127Z,23.48
2019-05-29T17:01:44.425Z,23.41
2019-05-29T17:04:10.789Z,23.34
2019-05-29T17:06:37.122Z,23.23
2019-05-29T17:09:03.458Z,23.13
2019-05-29T17:11:29.754Z,23.11
2019-05-29T17:13:56.080Z,23.03
2019-05-29T17:16:22.675Z,22.95
2019-05-29T17:18:49.000Z,22.91
2019-05-29T17:21:16.428Z,22.91
2019-05-29T17:23:41.664Z,22.91
2019-05-29T17:26:11.003Z,22.89
2019-05-29T17:28:34.404Z,22.87
2019-05-29T17:31:02.363Z,22.78
2019-05-29T17:33:27.044Z,22.60
2019-05-29T17:35:53.354Z,22.52
2019-05-29T17:38:21.105Z,22.48
2019-05-29T17:40:46.068Z,22.40
2019-05-29T17:43:12.532Z,22.37
2019-05-29T17:45:38.827Z,22.30
2019-05-29T17:48:05.135Z,22.19
2019-05-29T17:50:31.558Z,22.18
2019-05-29T17:52:57.903Z,22.13
2019-05-29T17:55:24.943Z,22.09
2019-05-29T17:57:50.728Z,22.01
2019-05-29T18:00:17.997Z,21.97
2019-05-29T18:02:51.841Z,21.90
2019-05-29T18:05:09.785Z,21.84
2019-05-29T18:07:36.103Z,21.83
2019-05-29T18:10:02.427Z,21.81
2019-05-29T18:12:28.762Z,21.79
2019-05-29T18:14:55.092Z,21.75
2019-05-29T18:17:21.458Z,21.68
2019-05-29T18:19:47.730Z,21.61
2019-05-29T18:22:14.044Z,21.58
2019-05-29T18:24:40.370Z,21.52
2019-05-29T18:27:06.710Z,21.47
2019-05-29T18:29:33.069Z,21.39
2019-05-29T18:31:59.406Z,21.36
2019-05-29T18:34:27.015Z,21.33
2019-05-29T18:36:52.050Z,21.24
2019-05-29T18:39:18.375Z,21.13
2019-05-29T18:41:44.709Z,21.10
2019-05-29T18:44:11.035Z,21.08
2019-05-29T18:46:38.180Z,21.10
2019-05-29T18:49:03.769Z,21.07
2019-05-29T18:51:30.106Z,21.04
2019-05-29T18:53:56.395Z,20.96
2019-05-29T18:56:23.873Z,20.94
2019-05-29T18:58:49.043Z,20.87
2019-05-29T19:01:15.362Z,20.84
2019-05-29T19:03:41.695Z,20.75
2019-05-29T19:06:08.021Z,20.71
2019-05-29T19:08:34.334Z,20.74
2019-05-29T19:11:00.667Z,20.73
2019-05-29T19:13:27.940Z,20.67
2019-05-29T19:15:53.272Z,20.64
2019-05-29T19:18:19.613Z,20.60
2019-05-29T19:20:45.925Z,20.58
2019-05-29T19:23:12.748Z,20.58
2019-05-29T19:25:39.071Z,20.59
2019-05-29T19:28:05.504Z,20.52
2019-05-29T19:30:32.953Z,20.55
2019-05-29T19:32:58.156Z,20.46
2019-05-29T19:35:25.422Z,20.37
2019-05-29T19:37:50.806Z,20.35
2019-05-29T19:40:17.144Z,20.37
2019-05-29T19:42:43.451Z,20.35
2019-05-29T19:45:09.784Z,20.31
2019-05-29T19:47:36.082Z,20.22
2019-05-29T19:50:02.402Z,20.20
2019-05-29T19:52:29.066Z,20.13
2019-05-29T19:54:55.030Z,20.07
2019-05-29T19:57:21.362Z,20.01
2019-05-29T19:59:47.670Z,19.97
2019-05-29T20:02:13.995Z,19.96
2019-05-29T20:04:40.338Z,19.90
2019-05-29T20:07:06.660Z,19.88
2019-05-29T20:09:33.349Z,19.82
2019-05-29T20:11:59.307Z,19.80
2019-05-29T20:14:25.655Z,19.75
2019-05-29T20:16:51.966Z,19.78
2019-05-29T20:19:18.268Z,19.77
2019-05-29T20:21:44.575Z,19.78
2019-05-29T20:24:10.892Z,19.74
2019-05-29T20:26:37.362Z,19.72
2019-05-29T20:29:03.604Z,19.62
2019-05-29T20:31:30.437Z,19.51
2019-05-29T20:33:56.291Z,19.48
2019-05-29T20:36:22.608Z,19.38
2019-05-29T20:38:48.929Z,19.32
2019-05-29T20:41:15.255Z,19.30
2019-05-29T20:43:41.921Z,19.24
2019-05-29T20:46:07.912Z,19.18
2019-05-29T20:48:34.597Z,19.15
2019-05-29T20:51:00.541Z,19.12
2019-05-29T20:53:26.860Z,19.10
2019-05-29T20:55:53.191Z,19.17
2019-05-29T20:58:24.623Z,19.22
2019-05-29T21:00:45.820Z,19.18
2019-05-29T21:03:12.151Z,19.15
2019-05-29T21:05:38.711Z,19.18
2019-05-29T21:08:04.787Z,19.12
2019-05-29T21:10:31.095Z,19.10
2019-05-29T21:12:57.420Z,19.04
2019-05-29T21:15:23.736Z,19.07
2019-05-29T21:17:50.074Z,19.07
2019-05-29T21:20:16.406Z,19.09
2019-05-29T21:22:43.008Z,19.11
2019-05-29T21:25:13.511Z,19.06
2019-05-29T21:27:35.400Z,19.04
2019-05-29T21:30:01.745Z,19.00
2019-05-29T21:32:28.057Z,19.00
2019-05-29T21:34:54.397Z,18.98
2019-05-29T21:37:20.680Z,18.99
2019-05-29T21:39:47.013Z,18.98
2019-05-29T21:42:13.387Z,18.91
2019-05-29T21:44:40.675Z,18.93
2019-05-29T21:47:06.046Z,18.91
2019-05-29T21:49:32.363Z,18.90
2019-05-29T21:51:58.669Z,18.84
2019-05-29T21:54:25.002Z,18.86
2019-05-29T21:56:51.323Z,18.79
2019-05-29T21:59:17.653Z,18.78
2019-05-29T22:01:44.225Z,18.73
2019-05-29T22:04:10.302Z,18.71
2019-05-29T22:06:36.627Z,18.74
2019-05-29T22:09:02.931Z,18.72
2019-05-29T22:11:29.272Z,18.69
2019-05-29T22:13:56.546Z,18.69
2019-05-29T22:16:21.906Z,18.71
2019-05-29T22:18:48.205Z,18.80
2019-05-29T22:21:14.518Z,18.81
2019-05-29T22:23:40.849Z,18.81
2019-05-29T22:26:07.157Z,18.82
2019-05-29T22:28:33.483Z,18.75
2019-05-29T22:30:59.820Z,18.70
2019-05-29T22:33:26.121Z,18.69
2019-05-29T22:35:54.031Z,18.65
2019-05-29T22:38:18.756Z,18.64
2019-05-29T22:40:45.066Z,18.63
2019-05-29T22:43:11.406Z,18.64
2019-05-29T22:45:37.713Z,18.62
2019-05-29T22:48:04.042Z,18.62
2019-05-29T22:50:30.396Z,18.63
2019-05-29T22:52:57.786Z,18.67
2019-05-29T22:55:23.036Z,18.67
2019-05-29T22:57:49.475Z,18.68
2019-05-29T23:00:15.798Z,18.64
2019-05-29T23:02:42.099Z,18.67
2019-05-29T23:05:08.426Z,18.74
2019-05-29T23:07:34.729Z,18.70
2019-05-29T23:10:01.051Z,18.70
2019-05-29T23:12:27.394Z,18.69
2019-05-29T23:14:54.427Z,18.67
2019-05-29T23:17:20.024Z,18.70
2019-05-29T23:19:46.356Z,18.65
2019-05-29T23:22:12.660Z,18.63
2019-05-29T23:24:39.000Z,18.64
2019-05-29T23:27:05.339Z,18.60
2019-05-29T23:29:47.694Z,18.58
2019-05-29T23:31:58.923Z,18.59
2019-05-29T23:34:24.308Z,18.60
2019-05-29T23:36:50.654Z,18.66
2019-05-29T23:39:16.947Z,18.68
2019-05-29T23:41:43.281Z,18.65
2019-05-29T23:44:09.610Z,18.62
2019-05-29T23:46:35.934Z,18.67
2019-05-29T23:49:02.251Z,18.77
2019-05-29T23:51:28.573Z,18.77
2019-05-29T23:53:55.630Z,18.78
2019-05-29T23:56:21.201Z,18.74
2019-05-29T23:58:47.522Z,18.72
